Time;durP1;ratioP1;P1;durP2;ratioP2;P2;SDS_P1;SDS_P2;PMS_P1;PMS_P2;Temp;Humidity;BMP_temperature;BMP_pressure;BME280_temperature;BME280_humidity;BME280_pressure;Samples;Min_cycle;Max_cycle;Signal;HPM_P1;HPM_P2
2023/04/27 00:01:55;;;;;;;5.73;2.67;;;4.20;99.90;4.20;94057.00;;;;7396839;19;20147;-76
2023/04/27 00:04:22;;;;;;;8.17;2.93;;;4.20;99.90;4.30;94075.00;;;;7404383;19;20129;-80
2023/04/27 00:06:51;;;;;;;6.20;2.67;;;4.20;99.90;4.30;94054.00;;;;7402309;19;20133;-76
2023/04/27 00:09:37;;;;;;;5.20;2.37;;;4.20;99.90;4.30;94088.00;;;;7403515;19;20139;-77
2023/04/27 00:12:12;;;;;;;4.77;2.57;;;4.20;99.90;4.40;94083.00;;;;7405499;19;20133;-76
2023/04/27 00:14:46;;;;;;;5.67;2.87;;;4.20;99.90;4.30;94085.00;;;;7404943;19;20132;-78
2023/04/27 00:17:13;;;;;;;9.70;2.70;;;4.20;99.90;4.20;94082.00;;;;7405663;19;20145;-77
2023/04/27 00:19:49;;;;;;;5.27;2.93;;;4.20;99.90;4.00;94097.00;;;;7403316;19;20639;-79
2023/04/27 00:22:25;;;;;;;6.17;2.87;;;4.20;1.00;4.20;94066.00;;;;7405573;19;20136;-78
2023/04/27 00:24:58;;;;;;;4.93;2.63;;;4.10;1.00;4.20;94075.00;;;;7402454;19;20186;-77
2023/04/27 00:27:32;;;;;;;6.73;2.70;;;4.10;1.00;4.10;94076.00;;;;7403150;19;20133;-76
2023/04/27 00:30:07;;;;;;;3.07;2.67;;;4.10;1.00;4.10;94027.00;;;;7405088;19;20587;-78
2023/04/27 00:32:34;;;;;;;4.80;2.63;;;4.10;1.00;4.10;94052.00;;;;7395993;19;20604;-76
2023/04/27 00:35:09;;;;;;;6.63;2.70;;;4.10;1.00;4.00;94058.00;;;;7399667;19;20611;-76
2023/04/27 00:37:44;;;;;;;6.73;2.83;;;4.00;1.00;4.00;94006.00;;;;7403076;19;20192;-77
2023/04/27 00:40:20;;;;;;;3.67;2.77;;;4.00;1.00;4.00;94053.00;;;;7404823;19;20591;-77
2023/04/27 00:42:47;;;;;;;11.27;2.63;;;4.00;1.00;4.00;94038.00;;;;7403000;19;20588;-76
2023/04/27 00:45:21;;;;;;;5.73;2.90;;;4.00;1.00;4.20;94046.00;;;;7403938;19;20135;-77
2023/04/27 00:47:49;;;;;;;6.47;3.07;;;4.00;99.90;4.30;94041.00;;;;7402442;19;20129;-76
2023/04/27 00:50:28;;;;;;;4.53;2.67;;;4.00;99.90;4.40;94048.00;;;;7404387;19;20129;-76
2023/04/27 00:52:56;;;;;;;6.07;2.63;;;4.00;99.90;4.30;93998.00;;;;7402587;19;20161;-77
2023/04/27 00:55:29;;;;;;;6.53;3.40;;;4.00;99.90;4.20;94054.00;;;;7403653;19;20148;-77
2023/04/27 00:57:56;;;;;;;4.73;2.90;;;4.00;99.90;4.30;94043.00;;;;7404085;19;20125;-77
2023/04/27 01:00:30;;;;;;;6.40;2.67;;;4.00;99.90;4.10;94045.00;;;;7402201;19;20133;-77
2023/04/27 01:02:59;;;;;;;6.43;2.80;;;4.00;99.90;4.00;94055.00;;;;7401083;19;20631;-78
2023/04/27 01:05:36;;;;;;;7.83;2.50;;;4.00;1.00;3.90;94055.00;;;;7397479;19;20540;-80
2023/04/27 01:08:11;;;;;;;6.70;2.60;;;3.90;1.00;3.80;94052.00;;;;7401636;19;20608;-78
2023/04/27 01:10:40;;;;;;;5.30;2.90;;;3.90;1.00;3.80;94021.00;;;;7402850;19;20664;-78
2023/04/27 01:13:21;;;;;;;4.70;2.60;;;3.80;1.00;3.80;94046.00;;;;7401082;19;20137;-75
2023/04/27 01:15:55;;;;;;;6.40;2.80;;;3.80;1.40;3.80;94044.00;;;;7400004;19;20346;-76
2023/04/27 01:18:29;;;;;;;3.27;2.40;;;3.80;99.90;3.80;94046.00;;;;7403521;19;20615;-77
2023/04/27 01:20:56;;;;;;;5.10;2.60;;;3.80;1.00;3.80;94020.00;;;;7402907;19;20124;-76
2023/04/27 01:23:32;;;;;;;6.23;2.60;;;3.80;1.00;3.80;94059.00;;;;7402111;19;20153;-76
2023/04/27 01:25:59;;;;;;;9.57;2.30;;;3.80;1.00;3.80;94049.00;;;;7400247;19;20149;-76
2023/04/27 01:28:32;;;;;;;8.37;3.00;;;3.80;1.00;3.90;94002.00;;;;7400668;19;20124;-77
2023/04/27 01:31:02;;;;;;;4.33;2.63;;;3.80;1.00;3.90;94061.00;;;;7403059;19;20464;-76
2023/04/27 01:33:36;;;;;;;4.93;2.90;;;3.80;1.00;4.20;93973.00;;;;7400493;19;20476;-79
2023/04/27 01:36:12;;;;;;;7.00;2.57;;;3.80;99.90;4.30;93993.00;;;;7401052;19;20133;-79
2023/04/27 01:38:46;;;;;;;11.53;2.67;;;3.90;99.90;4.20;94051.00;;;;7403170;19;20177;-79
2023/04/27 01:41:14;;;;;;;3.90;2.40;;;3.90;99.90;4.30;94053.00;;;;7399981;19;20161;-78
2023/04/27 01:43:48;;;;;;;5.43;2.70;;;4.00;99.90;4.40;94032.00;;;;7399428;19;20140;-76
2023/04/27 01:46:16;;;;;;;7.83;3.10;;;4.00;99.90;4.60;94046.00;;;;7401516;19;20332;-77
2023/04/27 01:48:49;;;;;;;6.53;3.13;;;4.10;99.90;4.70;94005.00;;;;7398538;19;20162;-76
2023/04/27 01:51:16;;;;;;;8.07;2.53;;;4.10;99.90;4.40;94017.00;;;;7399589;19;20216;-76
2023/04/27 01:53:50;;;;;;;5.17;2.40;;;4.10;99.90;4.30;94057.00;;;;7401951;19;20146;-76
2023/04/27 01:56:17;;;;;;;4.50;2.87;;;4.10;99.90;4.30;94056.00;;;;7395676;19;20143;-78
2023/04/27 01:58:52;;;;;;;7.03;2.67;;;4.10;99.90;4.30;94012.00;;;;7400978;19;20137;-77
2023/04/27 02:01:20;;;;;;;5.40;2.73;;;4.10;99.90;4.20;94052.00;;;;7398935;19;20201;-76
2023/04/27 02:03:53;;;;;;;5.60;2.80;;;4.10;99.90;4.30;94033.00;;;;7400585;19;20550;-78
2023/04/27 02:06:27;;;;;;;8.50;3.23;;;4.10;99.90;4.50;94068.00;;;;7401437;19;20132;-78
2023/04/27 02:09:01;;;;;;;7.43;2.70;;;4.10;99.90;4.50;94042.00;;;;7400878;19;20165;-76
2023/04/27 02:11:42;;;;;;;3.80;2.50;;;4.10;99.90;4.40;94020.00;;;;7399825;19;20774;-76
2023/04/27 02:14:16;;;;;;;5.53;3.00;;;4.20;99.90;4.30;94025.00;;;;7400990;19;20580;-78
2023/04/27 02:16:43;;;;;;;4.30;2.60;;;4.10;99.90;4.40;94056.00;;;;7399374;19;20145;-78
2023/04/27 02:19:17;;;;;;;8.27;2.87;;;4.10;99.90;4.30;94052.00;;;;7401815;19;20184;-77
2023/04/27 02:21:52;;;;;;;5.40;2.47;;;4.10;99.90;4.30;94033.00;;;;7399463;19;20216;-78
2023/04/27 02:24:25;;;;;;;8.47;2.97;;;4.10;99.90;4.30;94001.00;;;;7399970;19;20161;-76
2023/04/27 02:26:59;;;;;;;3.43;2.00;;;4.10;99.90;4.20;94047.00;;;;7398793;19;20136;-77
2023/04/27 02:29:30;;;;;;;6.40;2.40;;;4.10;99.90;4.10;94041.00;;;;7401796;19;20128;-76
2023/04/27 02:32:05;;;;;;;3.10;2.27;;;4.10;99.90;4.30;94017.00;;;;7398969;19;20145;-76
2023/04/27 02:34:40;;;;;;;7.53;3.70;;;4.10;99.90;4.50;94010.00;;;;7399586;19;20132;-77
2023/04/27 02:37:07;;;;;;;5.90;2.50;;;4.00;99.90;4.60;94066.00;;;;7399816;19;20157;-75
2023/04/27 02:39:41;;;;;;;5.63;2.60;;;4.10;99.90;4.60;94001.00;;;;7399510;19;20486;-76
2023/04/27 02:42:11;;;;;;;2.60;2.30;;;4.20;99.90;4.60;94069.00;;;;7398666;19;20144;-78
2023/04/27 02:44:44;;;;;;;6.47;2.77;;;4.20;99.90;4.60;94043.00;;;;7397181;19;20148;-76
2023/04/27 02:47:12;;;;;;;4.80;2.83;;;4.30;99.90;4.70;94059.00;;;;7398269;19;20127;-76
2023/04/27 02:49:39;;;;;;;8.40;2.90;;;4.30;99.90;4.70;94067.00;;;;7397948;19;20145;-78
2023/04/27 02:52:12;;;;;;;6.30;3.07;;;4.40;99.90;4.90;94064.00;;;;7398377;19;20140;-77
2023/04/27 02:54:47;;;;;;;3.40;2.67;;;4.40;99.90;5.00;94065.00;;;;7398132;19;20132;-76
2023/04/27 02:57:20;;;;;;;6.03;2.50;;;4.40;99.90;5.00;94065.00;;;;7400070;19;20133;-77
2023/04/27 02:59:48;;;;;;;6.30;2.57;;;4.50;99.90;4.70;94026.00;;;;7393658;19;20145;-77
2023/04/27 03:02:21;;;;;;;9.90;2.70;;;4.50;99.90;4.70;94011.00;;;;7396676;19;20635;-79
2023/04/27 03:04:56;;;;;;;4.77;2.60;;;4.50;99.90;4.70;94011.00;;;;7398368;19;20139;-77
2023/04/27 03:07:30;;;;;;;7.50;2.80;;;4.50;99.90;4.70;94026.00;;;;7398879;19;20137;-78
2023/04/27 03:10:05;;;;;;;6.87;2.80;;;4.50;99.90;4.80;94029.00;;;;7397361;19;20209;-78
2023/04/27 03:12:45;;;;;;;3.83;2.70;;;4.50;99.90;4.80;94027.00;;;;7398124;19;20165;-79
2023/04/27 03:15:13;;;;;;;8.23;2.50;;;4.60;99.90;5.10;94068.00;;;;7397913;19;20608;-77
2023/04/27 03:17:46;;;;;;;6.60;3.00;;;4.60;99.90;4.90;94022.00;;;;7399469;19;20137;-76
2023/04/27 03:20:14;;;;;;;3.27;2.33;;;4.60;99.90;4.90;94012.00;;;;7398544;19;20156;-76
2023/04/27 03:22:47;;;;;;;8.33;2.70;;;4.60;99.90;5.00;94065.00;;;;7399184;19;20196;-76
2023/04/27 03:25:22;;;;;;;7.67;2.57;;;4.70;99.90;4.80;94053.00;;;;7397859;19;20624;-79
2023/04/27 03:27:56;;;;;;;5.67;2.87;;;4.60;99.90;5.00;94072.00;;;;7397740;19;20144;-77
2023/04/27 03:30:30;;;;;;;8.10;2.43;;;4.60;99.90;5.00;94035.00;;;;7397893;19;20552;-79
2023/04/27 03:33:04;;;;;;;4.27;2.67;;;4.70;99.90;4.90;94028.00;;;;7398165;19;20485;-79
2023/04/27 03:35:39;;;;;;;5.40;2.93;;;4.70;99.90;5.00;94074.00;;;;7396693;19;20487;-77
2023/04/27 03:38:12;;;;;;;4.07;2.67;;;4.80;99.90;5.30;94059.00;;;;7395269;19;20135;-78
2023/04/27 03:40:46;;;;;;;7.67;2.40;;;4.80;99.90;5.30;94044.00;;;;7398297;19;20350;-78
2023/04/27 03:43:20;;;;;;;6.17;2.70;;;4.90;99.90;5.20;94030.00;;;;7396729;19;20141;-76
2023/04/27 03:45:49;;;;;;;5.33;2.40;;;4.90;99.90;5.20;94014.00;;;;7395530;19;20145;-77
2023/04/27 03:48:22;;;;;;;5.07;2.40;;;4.90;99.90;5.30;94077.00;;;;7398007;19;20595;-78
2023/04/27 03:50:50;;;;;;;4.80;2.80;;;4.90;99.90;5.30;94064.00;;;;7396986;19;20182;-77
2023/04/27 03:53:24;;;;;;;5.83;2.70;;;4.90;99.90;5.30;94065.00;;;;7398833;19;20140;-77
2023/04/27 03:55:58;;;;;;;5.00;2.93;;;4.90;99.90;5.10;94038.00;;;;7396349;19;20124;-78
2023/04/27 03:58:31;;;;;;;5.33;2.70;;;4.90;99.90;5.10;94065.00;;;;7396912;19;20140;-76
2023/04/27 04:01:08;;;;;;;5.40;2.90;;;4.90;99.90;5.20;94020.00;;;;7396880;19;20507;-79
2023/04/27 04:03:43;;;;;;;7.83;3.10;;;4.90;99.90;5.40;94065.00;;;;7398743;19;20129;-77
2023/04/27 04:06:18;;;;;;;7.20;2.77;;;4.90;64.40;5.30;94041.00;;;;7390199;19;20630;-79
2023/04/27 04:08:53;;;;;;;4.97;2.60;;;4.90;99.90;5.10;94025.00;;;;7390203;19;20140;-79
2023/04/27 04:11:41;;;;;;;4.60;2.60;;;4.90;99.90;5.10;94059.00;;;;7391672;19;20168;-76
2023/04/27 04:14:08;;;;;;;7.90;3.03;;;4.80;99.90;5.00;94077.00;;;;7392929;19;20141;-75
2023/04/27 04:16:42;;;;;;;4.47;2.40;;;4.80;99.90;5.00;94008.00;;;;7393167;19;20146;-77
2023/04/27 04:19:10;;;;;;;3.30;2.37;;;4.80;99.90;5.00;94058.00;;;;7394575;19;20161;-78
2023/04/27 04:21:37;;;;;;;3.97;2.43;;;4.80;99.90;5.00;94056.00;;;;7392885;19;20140;-76
2023/04/27 04:24:11;;;;;;;4.73;2.90;;;4.70;99.90;5.10;94083.00;;;;7393726;19;20149;-78
2023/04/27 04:26:38;;;;;;;5.53;2.90;;;4.80;99.90;5.20;94062.00;;;;7391611;19;20163;-75
2023/04/27 04:29:13;;;;;;;5.30;2.63;;;4.80;99.90;5.00;94051.00;;;;7390763;19;20442;-76
2023/04/27 04:31:41;;;;;;;9.07;3.17;;;4.80;99.90;5.10;94083.00;;;;7393553;19;20611;-76
2023/04/27 04:34:15;;;;;;;6.03;2.60;;;4.70;99.90;5.10;94054.00;;;;7394357;19;20905;-78
2023/04/27 04:36:43;;;;;;;4.80;2.23;;;4.70;99.90;5.10;94079.00;;;;7392147;19;20486;-78
2023/04/27 04:39:20;;;;;;;5.67;2.40;;;4.70;99.90;5.10;94053.00;;;;7393675;19;20588;-78
2023/04/27 04:41:48;;;;;;;4.00;2.40;;;4.80;99.90;5.10;94083.00;;;;7392194;19;20565;-76
2023/04/27 04:44:22;;;;;;;4.90;2.73;;;4.80;99.90;5.20;94017.00;;;;7393586;19;20156;-78
2023/04/27 04:46:50;;;;;;;7.73;2.50;;;4.80;99.90;5.20;94084.00;;;;7391045;19;20152;-78
2023/04/27 04:49:24;;;;;;;3.77;2.70;;;4.80;99.90;5.30;94093.00;;;;7394258;19;20616;-79
2023/04/27 04:51:57;;;;;;;8.47;3.10;;;4.80;99.90;5.30;94054.00;;;;7399565;19;20169;-76
2023/04/27 04:54:31;;;;;;;5.93;2.53;;;4.90;99.90;5.60;94099.00;;;;7398710;19;20483;-76
2023/04/27 04:56:59;;;;;;;4.93;2.60;;;5.00;99.90;5.70;94055.00;;;;7399306;19;20472;-77
2023/04/27 04:59:34;;;;;;;6.27;2.37;;;5.00;99.90;5.50;94067.00;;;;7400860;19;20604;-78
2023/04/27 05:02:01;;;;;;;3.73;2.47;;;5.10;99.90;5.40;94094.00;;;;7398823;19;20141;-77
2023/04/27 05:04:35;;;;;;;6.60;2.80;;;5.10;99.90;5.50;94042.00;;;;7396190;19;20145;-76
2023/04/27 05:07:03;;;;;;;7.50;2.53;;;5.10;99.90;5.50;94059.00;;;;7398004;19;20199;-77
2023/04/27 05:09:40;;;;;;;5.70;2.70;;;5.20;99.90;5.60;94074.00;;;;7400057;19;20128;-76
2023/04/27 05:12:23;;;;;;;6.33;2.60;;;5.30;99.90;5.60;94009.00;;;;7401157;19;20147;-78
2023/04/27 05:14:57;;;;;;;5.70;2.80;;;5.30;99.90;5.80;94042.00;;;;7403272;19;20442;-77
2023/04/27 05:17:25;;;;;;;8.73;2.87;;;5.40;99.90;5.90;94085.00;;;;7402356;19;20149;-80
2023/04/27 05:19:53;;;;;;;6.77;2.80;;;5.40;99.90;5.90;94085.00;;;;7401714;19;20137;-78
2023/04/27 05:22:27;;;;;;;3.20;2.83;;;5.60;73.50;6.20;94079.00;;;;7400306;19;20604;-78
2023/04/27 05:24:56;;;;;;;7.57;3.20;;;5.70;42.20;6.00;94063.00;;;;7402557;19;20157;-76
2023/04/27 05:27:32;;;;;;;6.47;2.83;;;5.80;77.20;6.10;94066.00;;;;7404159;19;20140;-76
2023/04/27 05:29:59;;;;;;;6.23;2.37;;;5.90;69.70;6.20;94077.00;;;;7400107;19;20476;-80
2023/04/27 05:32:36;;;;;;;4.90;2.40;;;6.00;94.40;6.30;94097.00;;;;7399175;19;20152;-80
2023/04/27 05:35:04;;;;;;;6.83;2.70;;;6.00;83.30;6.20;94083.00;;;;7402826;19;20596;-77
2023/04/27 05:37:37;;;;;;;7.70;2.60;;;6.10;99.90;6.10;94036.00;;;;7402576;19;20143;-77
2023/04/27 05:40:14;;;;;;;3.40;2.30;;;6.10;99.90;6.10;94099.00;;;;7403046;19;20160;-77
2023/04/27 05:42:48;;;;;;;4.87;2.40;;;6.10;99.90;6.10;94039.00;;;;7400999;19;20196;-78
2023/04/27 05:45:15;;;;;;;5.20;2.40;;;6.00;99.90;6.10;94108.00;;;;7401895;19;20200;-77
2023/04/27 05:47:51;;;;;;;4.97;2.60;;;6.00;99.90;6.20;94039.00;;;;7403069;19;20160;-75
2023/04/27 05:50:27;;;;;;;6.43;2.87;;;5.90;99.90;6.20;94114.00;;;;7402217;19;20639;-77
2023/04/27 05:52:54;;;;;;;3.63;1.97;;;5.90;99.90;6.20;94107.00;;;;7403269;19;20617;-76
2023/04/27 05:55:28;;;;;;;5.20;2.70;;;6.00;99.90;6.70;94111.00;;;;7400114;19;20216;-77
2023/04/27 05:58:02;;;;;;;8.60;2.40;;;6.10;99.90;7.30;94106.00;;;;7400949;19;20153;-74
2023/04/27 06:00:35;;;;;;;3.27;2.40;;;6.20;99.90;7.50;94115.00;;;;7400776;19;20229;-76
2023/04/27 06:03:08;;;;;;;2.87;2.10;;;6.50;99.90;7.60;94119.00;;;;7386479;19;20133;-75
2023/04/27 06:05:36;;;;;;;6.40;2.73;;;6.70;99.90;8.10;94123.00;;;;7379406;19;20681;-75
2023/04/27 06:08:11;;;;;;;6.80;2.87;;;7.00;99.90;8.70;94131.00;;;;7373009;19;20146;-77
2023/04/27 06:10:52;;;;;;;4.10;2.53;;;7.30;99.90;8.80;94138.00;;;;7375008;19;20247;-75
2023/04/27 06:13:33;;;;;;;6.27;1.97;;;7.60;99.90;8.80;94132.00;;;;7375807;19;20137;-75
2023/04/27 06:16:00;;;;;;;5.23;2.53;;;7.80;99.90;9.30;94084.00;;;;7375318;19;20146;-77
2023/04/27 06:18:37;;;;;;;5.97;2.90;;;8.00;88.50;9.80;94078.00;;;;7375922;19;20132;-77
2023/04/27 06:21:05;;;;;;;7.32;3.60;;;8.30;1.00;10.80;94091.00;;;;7374299;19;20771;-77
2023/04/27 06:23:40;;;;;;;5.68;2.88;;;8.50;1.00;11.30;94129.00;;;;7374985;19;20152;-75
2023/04/27 06:26:27;;;;;;;5.00;3.00;;;8.80;1.00;11.60;94113.00;;;;7376552;19;20545;-77
2023/04/27 06:29:03;;;;;;;6.50;3.15;;;9.10;1.00;11.90;94090.00;;;;7378136;19;20897;-75
2023/04/27 06:31:31;;;;;;;6.47;3.20;;;9.30;1.00;11.80;94099.00;;;;7376947;19;20137;-75
2023/04/27 06:34:06;;;;;;;4.50;3.00;;;9.50;1.00;11.90;94134.00;;;;7373855;19;20124;-75
2023/04/27 06:36:33;;;;;;;7.85;2.95;;;9.60;1.00;12.00;94133.00;;;;7377000;19;20522;-74
2023/04/27 06:39:09;;;;;;;6.75;3.30;;;9.70;99.90;12.20;94110.00;;;;7376676;19;20159;-78
2023/04/27 06:41:36;;;;;;;9.52;4.18;;;9.80;99.90;12.90;94140.00;;;;7376956;19;20152;-75
2023/04/27 06:44:11;;;;;;;6.03;3.78;;;10.00;99.90;12.60;94134.00;;;;7378181;19;20140;-75
2023/04/27 06:46:38;;;;;;;5.07;3.50;;;10.30;99.90;12.70;94134.00;;;;7378694;19;20140;-74
2023/04/27 06:49:13;;;;;;;6.80;3.92;;;10.60;99.90;13.30;94133.00;;;;7375571;19;20152;-76
2023/04/27 06:51:42;;;;;;;10.45;3.60;;;10.80;72.20;13.90;94005.00;;;;7376882;19;20160;-74
2023/04/27 06:54:16;;;;;;;10.77;3.72;;;10.90;57.50;13.60;94121.00;;;;7376260;19;20132;-75
2023/04/27 06:56:44;;;;;;;5.68;3.67;;;10.90;48.10;12.90;94116.00;;;;7373738;19;20163;-75
2023/04/27 06:59:22;;;;;;;6.43;3.08;;;10.90;22.50;12.30;94144.00;;;;7375347;19;20605;-74
2023/04/27 07:01:50;;;;;;;6.63;3.20;;;10.90;1.00;12.30;94151.00;;;;7374622;19;20244;-75
2023/04/27 07:04:18;;;;;;;5.35;2.92;;;11.00;3.20;12.00;94149.00;;;;7374601;19;20173;-74
2023/04/27 07:06:52;;;;;;;4.25;2.80;;;10.90;11.70;11.90;94139.00;;;;7375172;19;20133;-76
2023/04/27 07:09:20;;;;;;;6.50;3.13;;;10.90;5.50;11.40;94140.00;;;;7374281;19;20153;-75
2023/04/27 07:12:01;;;;;;;5.45;2.70;;;10.80;16.60;12.50;94121.00;;;;7375631;19;20663;-75
2023/04/27 07:14:29;;;;;;;4.63;3.42;;;10.80;1.00;13.20;94150.00;;;;7375311;19;20136;-77
2023/04/27 07:17:03;;;;;;;6.88;2.90;;;11.00;32.70;13.40;94125.00;;;;7376435;19;20131;-76
2023/04/27 07:19:37;;;;;;;7.15;3.08;;;11.10;1.00;12.90;94103.00;;;;7373959;19;20139;-76
2023/04/27 07:22:12;;;;;;;5.32;3.28;;;11.00;1.00;13.00;94121.00;;;;7375058;19;20150;-77
2023/04/27 07:24:46;;;;;;;5.80;2.92;;;10.90;1.00;13.30;94098.00;;;;7375494;19;23764;-76
2023/04/27 07:27:20;;;;;;;5.72;3.10;;;11.10;1.00;13.60;94116.00;;;;7371291;19;20144;-74
2023/04/27 07:29:54;;;;;;;5.70;2.50;;;11.20;1.00;13.50;94129.00;;;;7371506;19;20152;-75
2023/04/27 07:32:28;;;;;;;5.40;2.67;;;11.60;1.00;13.10;94142.00;;;;7371561;19;20170;-75
2023/04/27 07:35:02;;;;;;;7.82;2.50;;;11.90;1.00;13.60;94132.00;;;;7371453;19;20159;-74
2023/04/27 07:37:37;;;;;;;4.43;2.65;;;12.10;1.00;14.10;94138.00;;;;7371930;19;20219;-74
2023/04/27 07:40:20;;;;;;;5.65;2.50;;;12.20;1.00;15.30;94106.00;;;;7373667;19;20154;-74
2023/04/27 07:42:55;;;;;;;7.65;3.03;;;12.10;1.00;15.10;94120.00;;;;7374468;19;20149;-75
2023/04/27 07:45:32;;;;;;;4.95;2.63;;;12.40;1.00;13.60;94144.00;;;;7375464;19;20148;-76
2023/04/27 07:48:07;;;;;;;7.80;3.35;;;12.90;1.00;14.80;94140.00;;;;7376765;19;20204;-75
2023/04/27 07:50:41;;;;;;;4.38;2.75;;;13.00;1.00;15.60;94123.00;;;;7374540;19;20149;-77
2023/04/27 07:53:21;;;;;;;4.78;2.45;;;13.00;1.00;14.70;94111.00;;;;7376124;19;20183;-76
2023/04/27 07:55:55;;;;;;;5.57;2.25;;;13.00;1.00;14.80;94124.00;;;;7376551;19;20136;-76
2023/04/27 07:58:30;;;;;;;5.38;2.60;;;13.00;1.00;14.70;94124.00;;;;7374120;19;20161;-75
2023/04/27 08:00:57;;;;;;;4.88;2.47;;;13.00;1.00;14.70;94129.00;;;;7376758;19;20153;-77
2023/04/27 08:03:32;;;;;;;9.88;2.72;;;13.30;1.00;15.90;94137.00;;;;7374112;19;20152;-75
2023/04/27 08:06:00;;;;;;;3.85;2.33;;;13.40;1.00;16.00;94125.00;;;;7368816;19;20159;-76
2023/04/27 08:08:35;;;;;;;4.28;2.70;;;13.20;1.00;15.50;94114.00;;;;7373347;19;20183;-75
2023/04/27 08:11:11;;;;;;;4.75;2.65;;;13.50;1.00;15.10;94097.00;;;;7373350;19;20643;-75
2023/04/27 08:13:45;;;;;;;4.35;2.10;;;13.70;1.00;16.80;94129.00;;;;7374588;19;20129;-75
2023/04/27 08:16:12;;;;;;;5.57;2.50;;;14.00;1.00;15.50;94100.00;;;;7374099;19;20165;-75
2023/04/27 08:18:46;;;;;;;4.30;2.53;;;14.20;1.00;15.10;94108.00;;;;7375562;19;20531;-75
2023/04/27 08:21:15;;;;;;;6.82;2.58;;;14.40;1.00;16.20;94129.00;;;;7374287;19;20474;-74
2023/04/27 08:23:51;;;;;;;5.00;2.60;;;14.40;1.00;17.10;94116.00;;;;7374489;19;20173;-75
2023/04/27 08:26:18;;;;;;;9.13;2.40;;;14.50;1.00;17.60;94125.00;;;;7380420;19;20152;-75
2023/04/27 08:28:56;;;;;;;5.15;2.47;;;14.70;1.00;17.60;94130.00;;;;7381838;19;20489;-78
2023/04/27 08:31:26;;;;;;;4.65;2.10;;;14.70;1.00;16.90;94118.00;;;;7380325;19;20459;-78
2023/04/27 08:34:00;;;;;;;4.20;2.47;;;14.90;1.00;15.60;94102.00;;;;7380768;19;20231;-75
2023/04/27 08:36:28;;;;;;;4.03;2.28;;;15.30;1.00;15.90;94070.00;;;;7379723;19;20151;-74
2023/04/27 08:39:06;;;;;;;4.63;2.30;;;15.70;1.00;17.00;94111.00;;;;7379501;19;20171;-73
2023/04/27 08:41:42;;;;;;;6.05;2.65;;;15.60;1.00;16.80;94120.00;;;;7379480;19;20151;-74
2023/04/27 08:44:17;;;;;;;5.28;2.22;;;15.60;1.00;16.50;94118.00;;;;7379059;19;20501;-73
2023/04/27 08:46:51;;;;;;;3.83;2.10;;;15.60;1.00;18.10;94122.00;;;;7379964;19;20487;-75
2023/04/27 08:49:25;;;;;;;5.57;1.90;;;15.30;1.00;16.30;94119.00;;;;7379912;19;20525;-73
2023/04/27 08:51:52;;;;;;;3.97;2.13;;;15.60;1.00;17.10;94125.00;;;;7380078;19;20186;-75
2023/04/27 08:54:27;;;;;;;5.82;2.67;;;15.90;1.00;18.70;94092.00;;;;7379365;19;20539;-75
2023/04/27 08:56:56;;;;;;;6.07;2.22;;;16.10;1.00;19.40;94086.00;;;;7377047;19;20132;-74
2023/04/27 08:59:31;;;;;;;6.00;2.40;;;16.50;1.00;17.20;94089.00;;;;7379853;19;20148;-76
2023/04/27 09:01:59;;;;;;;4.70;2.30;;;16.80;1.00;17.30;94113.00;;;;7379667;19;20207;-75
2023/04/27 09:04:38;;;;;;;4.15;2.20;;;16.70;1.00;18.40;94106.00;;;;7379310;19;20140;-75
2023/04/27 09:07:15;;;;;;;5.28;2.20;;;16.70;1.00;17.80;94122.00;;;;7381865;19;20139;-75
2023/04/27 09:10:02;;;;;;;4.00;2.22;;;16.50;1.00;16.50;94083.00;;;;7378930;19;20592;-76
2023/04/27 09:12:36;;;;;;;2.88;1.90;;;16.20;1.00;16.80;94123.00;;;;7378179;19;20255;-74
2023/04/27 09:15:11;;;;;;;5.43;2.40;;;16.40;1.00;15.00;94131.00;;;;7379705;19;20129;-75
2023/04/27 09:17:38;;;;;;;3.67;2.13;;;16.40;1.00;15.90;94134.00;;;;7376501;19;20526;-74
2023/04/27 09:20:12;;;;;;;3.17;1.95;;;16.00;1.00;14.90;94129.00;;;;7376076;19;20156;-74
2023/04/27 09:22:56;;;;;;;5.05;2.22;;;15.50;1.00;15.20;94130.00;;;;7376639;19;20156;-75
2023/04/27 09:25:32;;;;;;;3.33;2.20;;;15.70;1.00;16.60;94139.00;;;;7374647;19;20152;-76
2023/04/27 09:28:00;;;;;;;3.45;2.10;;;16.00;1.00;15.30;94078.00;;;;7377428;19;20129;-76
2023/04/27 09:30:36;;;;;;;4.38;2.10;;;16.10;1.00;15.70;94124.00;;;;7376956;19;20133;-76
2023/04/27 09:33:12;;;;;;;3.35;2.10;;;16.50;1.00;16.50;94133.00;;;;7375384;19;20727;-75
2023/04/27 09:35:47;;;;;;;4.10;1.90;;;16.80;1.00;17.10;94125.00;;;;7373133;19;20133;-75
2023/04/27 09:38:22;;;;;;;3.50;2.13;;;16.90;1.00;17.00;94132.00;;;;7375707;19;20152;-77
2023/04/27 09:40:56;;;;;;;6.18;2.00;;;16.90;1.00;15.30;94157.00;;;;7374558;19;20149;-75
2023/04/27 09:43:26;;;;;;;3.75;2.08;;;16.50;1.00;15.80;94141.00;;;;7374780;19;20156;-75
2023/04/27 09:46:02;;;;;;;3.65;1.70;;;16.30;1.00;15.30;94146.00;;;;7375321;19;20153;-75
2023/04/27 09:48:38;;;;;;;3.15;1.85;;;16.00;1.00;15.80;94152.00;;;;7375984;19;20560;-76
2023/04/27 09:51:06;;;;;;;5.13;1.90;;;15.90;1.00;16.00;94138.00;;;;7375086;19;20137;-76
2023/04/27 09:54:02;;;;;;;2.83;1.95;;;15.90;1.00;16.00;94161.00;;;;7374630;19;20159;-75
2023/04/27 09:57:03;;;;;;;3.20;2.15;;;16.00;1.00;17.10;94154.00;;;;7374051;19;20178;-75
2023/04/27 10:00:35;;;;;;;8.00;2.10;;;16.10;1.00;16.00;94148.00;;;;7375176;19;20572;-76
2023/04/27 10:03:43;;;;;;;3.88;2.00;;;15.90;1.00;14.70;94159.00;;;;7376358;19;20175;-75
2023/04/27 10:06:51;;;;;;;3.88;2.53;;;15.90;1.00;16.00;94153.00;;;;7373978;19;20592;-76
2023/04/27 10:09:30;;;;;;;3.88;2.33;;;16.00;1.00;16.70;94139.00;;;;7371403;19;20434;-75
2023/04/27 10:12:35;;;;;;;4.53;2.90;;;16.20;1.00;17.30;94156.00;;;;7373679;19;20176;-74
2023/04/27 10:15:16;;;;;;;7.10;2.30;;;16.50;1.00;17.30;94132.00;;;;7374530;19;20153;-75
2023/04/27 10:17:57;;;;;;;5.18;2.47;;;16.60;1.00;17.20;94138.00;;;;7375575;19;20158;-75
2023/04/27 10:20:36;;;;;;;6.80;2.90;;;16.40;1.00;17.00;94153.00;;;;7372887;19;20183;-76
2023/04/27 10:23:10;;;;;;;3.58;2.53;;;16.30;1.00;16.60;94137.00;;;;7374248;19;20188;-77
2023/04/27 10:25:46;;;;;;;2.88;2.53;;;16.10;1.00;16.40;94121.00;;;;7373461;19;20156;-76
2023/04/27 10:28:20;;;;;;;4.32;2.42;;;16.10;1.00;16.80;94137.00;;;;7375326;19;20156;-76
2023/04/27 10:30:48;;;;;;;7.18;2.50;;;16.10;1.00;16.50;94133.00;;;;7374376;19;20135;-75
2023/04/27 10:33:23;;;;;;;3.30;2.30;;;16.20;1.00;16.90;94147.00;;;;7373403;19;20148;-75
2023/04/27 10:35:59;;;;;;;4.13;2.55;;;16.20;1.00;17.20;94138.00;;;;7375194;19;20461;-75
2023/04/27 10:38:40;;;;;;;4.07;2.40;;;16.50;1.00;17.40;94145.00;;;;7373473;19;20156;-75
2023/04/27 10:41:16;;;;;;;9.98;2.95;;;16.50;1.00;17.50;94140.00;;;;7373404;19;20166;-76
2023/04/27 10:43:44;;;;;;;4.13;2.22;;;16.90;1.00;17.80;94147.00;;;;7373529;19;20152;-75
2023/04/27 10:46:18;;;;;;;3.97;2.15;;;17.20;1.00;16.30;94148.00;;;;7373589;19;20153;-76
2023/04/27 10:48:47;;;;;;;4.65;2.15;;;17.60;1.00;17.70;94157.00;;;;7366385;19;20155;-75
2023/04/27 10:51:23;;;;;;;6.78;2.90;;;17.40;1.00;17.70;94135.00;;;;7373396;19;20606;-79
2023/04/27 10:53:54;;;;;;;5.68;2.00;;;17.30;1.00;18.60;94108.00;;;;7374711;19;20132;-76
2023/04/27 10:56:28;;;;;;;4.00;2.15;;;18.10;1.00;18.70;94128.00;;;;7369768;19;20573;-78
2023/04/27 10:59:02;;;;;;;4.00;2.00;;;19.10;1.00;19.40;94124.00;;;;7372427;19;20146;-78
2023/04/27 11:01:37;;;;;;;3.45;2.13;;;19.00;1.00;17.40;94120.00;;;;7372503;19;20176;-77
2023/04/27 11:04:04;;;;;;;3.35;2.30;;;19.00;1.00;17.90;94132.00;;;;7372900;19;20148;-75
2023/04/27 11:06:44;;;;;;;3.80;2.22;;;18.90;1.00;18.60;94144.00;;;;7372552;19;20653;-77
2023/04/27 11:09:26;;;;;;;6.63;2.58;;;18.40;1.00;18.60;94132.00;;;;7371012;19;20482;-75
2023/04/27 11:12:07;;;;;;;6.28;2.40;;;18.10;1.00;18.70;94127.00;;;;7374606;19;20481;-75
2023/04/27 11:14:41;;;;;;;4.10;2.55;;;17.70;1.00;19.70;94091.00;;;;7372865;19;20153;-76
2023/04/27 11:17:15;;;;;;;4.25;2.30;;;18.30;1.00;20.60;94102.00;;;;7374377;19;20163;-77
2023/04/27 11:19:46;;;;;;;5.15;2.40;;;19.30;1.00;19.30;94118.00;;;;7373533;19;20132;-75
2023/04/27 11:22:20;;;;;;;3.78;2.10;;;19.80;1.00;19.00;94152.00;;;;7374797;19;20128;-75
2023/04/27 11:24:52;;;;;;;2.95;1.90;;;19.00;1.00;17.30;94156.00;;;;7372268;19;20174;-75
2023/04/27 11:27:37;;;;;;;2.35;1.90;;;18.50;1.00;17.30;94167.00;;;;7372125;19;20152;-73
2023/04/27 11:30:20;;;;;;;5.72;2.20;;;17.90;1.00;16.80;94171.00;;;;7371506;19;20145;-76
2023/04/27 11:32:55;;;;;;;5.35;2.42;;;17.70;1.00;17.20;94169.00;;;;7372183;19;22907;-77
2023/04/27 11:35:36;;;;;;;5.22;3.00;;;16.90;1.00;16.70;94146.00;;;;7371183;19;20648;-75
2023/04/27 11:38:18;;;;;;;6.22;2.70;;;16.60;1.00;17.30;94114.00;;;;7373531;19;20162;-76